Time,TemperatureF,DewpointF,PressureIn,WindDirection,WindDirectionDegrees,WindSpeedMPH,WindSpeedGustMPH,Humidity,HourlyPrecipIn,Conditions,Clouds,dailyrainin,SolarRadiationWatts/m^2,SoftwareType,DateUTC
2015-03-04 00:02:00,23.6,16.8,29.90,WNW,284,9.0,19.0,75,0.00,,,0.00,0,Wunderground v.1.15,2015-03-04 06:02:00,
2015-03-04 00:07:00,23.3,16.2,29.91,WSW,257,5.0,19.0,74,0.00,,,0.00,0,Wunderground v.1.15,2015-03-04 06:07:00,
2015-03-04 00:12:00,22.9,15.8,29.91,WNW,302,14.0,14.0,74,0.00,,,0.00,0,Wunderground v.1.15,2015-03-04 06:12:00,
2015-03-04 00:17:00,22.6,15.9,29.91,WNW,294,3.0,16.0,75,0.00,,,0.00,0,Wunderground v.1.15,2015-03-04 06:17:00,
2015-03-04 00:22:00,22.2,15.5,29.91,West,277,6.0,9.0,75,0.00,,,0.00,0,Wunderground v.1.15,2015-03-04 06:22:00,
2015-03-04 00:27:00,21.9,14.9,29.91,West,267,3.0,11.0,74,0.00,,,0.00,0,Wunderground v.1.15,2015-03-04 06:27:00,
2015-03-04 00:32:00,21.6,14.9,29.91,West,261,4.0,10.0,75,0.00,,,0.00,0,Wunderground v.1.15,2015-03-04 06:32:00,
2015-03-04 00:37:00,21.3,14.6,29.91,SW,235,8.0,12.0,75,0.00,,,0.00,0,Wunderground v.1.15,2015-03-04 06:37:00,
2015-03-04 00:42:00,21.0,14.3,29.92,NW,310,8.0,11.0,75,0.00,,,0.00,0,Wunderground v.1.15,2015-03-04 06:42:00,
2015-03-04 00:47:00,20.8,14.1,29.92,West,259,5.0,12.0,75,0.00,,,0.00,0,Wunderground v.1.15,2015-03-04 06:47:00,
2015-03-04 00:52:00,20.5,14.1,29.92,West,277,7.0,9.0,76,0.00,,,0.00,0,Wunderground v.1.15,2015-03-04 06:52:00,
2015-03-04 00:57:00,20.3,13.9,29.93,WNW,298,9.0,11.0,76,0.00,,,0.00,0,Wunderground v.1.15,2015-03-04 06:57:00,
2015-03-04 01:02:00,20.1,13.7,29.93,WNW,290,9.0,9.0,76,0.00,,,0.00,0,Wunderground v.1.15,2015-03-04 07:02:00,
2015-03-04 01:07:00,20.0,13.6,29.93,WNW,293,4.0,14.0,76,0.00,,,0.00,0,Wunderground v.1.15,2015-03-04 07:07:00,
2015-03-04 01:12:00,19.8,13.5,29.94,WNW,296,6.0,9.0,76,0.00,,,0.00,0,Wunderground v.1.15,2015-03-04 07:12:00,
2015-03-04 01:17:00,19.6,13.6,29.94,NW,309,9.0,9.0,77,0.00,,,0.00,0,Wunderground v.1.15,2015-03-04 07:17:00,
2015-03-04 01:22:00,19.4,13.4,29.94,NW,317,5.0,8.0,77,0.00,,,0.00,0,Wunderground v.1.15,2015-03-04 07:22:00,
2015-03-04 01:27:00,19.2,13.2,29.95,NW,322,8.0,14.0,77,0.00,,,0.00,0,Wunderground v.1.15,2015-03-04 07:27:00,
2015-03-04 01:32:00,18.9,12.9,29.95,West,265,5.0,9.0,77,0.00,,,0.00,0,Wunderground v.1.15,2015-03-04 07:32:00,
2015-03-04 01:37:00,18.6,12.6,29.96,WNW,291,6.0,13.0,77,0.00,,,0.00,0,Wunderground v.1.15,2015-03-04 07:37:00,
2015-03-04 01:42:00,18.3,12.3,29.96,NW,309,9.0,11.0,77,0.00,,,0.00,0,Wunderground v.1.15,2015-03-04 07:42:00,
2015-03-04 01:47:00,18.1,12.1,29.96,WNW,284,4.0,11.0,77,0.00,,,0.00,0,Wunderground v.1.15,2015-03-04 07:47:00,
2015-03-04 01:52:00,17.8,11.8,29.97,WNW,287,8.0,15.0,77,0.00,,,0.00,0,Wunderground v.1.15,2015-03-04 07:52:00,
2015-03-04 01:57:00,17.7,11.7,29.97,WNW,284,4.0,15.0,77,0.00,,,0.00,0,Wunderground v.1.15,2015-03-04 07:57:00,
2015-03-04 02:02:00,17.4,11.7,29.97,WNW,288,4.0,10.0,78,0.00,,,0.00,0,Wunderground v.1.15,2015-03-04 08:02:00,
2015-03-04 02:07:00,17.2,11.5,29.98,West,277,5.0,11.0,78,0.00,,,0.00,0,Wunderground v.1.15,2015-03-04 08:07:00,
2015-03-04 02:12:00,16.9,10.9,29.98,WNW,303,8.0,13.0,77,0.00,,,0.00,0,Wunderground v.1.15,2015-03-04 08:12:00,
2015-03-04 02:17:00,16.7,10.7,29.99,NW,305,10.0,13.0,77,0.00,,,0.00,0,Wunderground v.1.15,2015-03-04 08:17:00,
2015-03-04 02:22:00,16.3,10.4,29.98,WNW,295,8.0,9.0,77,0.00,,,0.00,0,Wunderground v.1.15,2015-03-04 08:22:00,
2015-03-04 02:27:00,16.1,9.9,29.98,West,278,7.0,12.0,76,0.00,,,0.00,0,Wunderground v.1.15,2015-03-04 08:27:00,
2015-03-04 02:32:00,15.9,9.7,29.98,NW,323,4.0,8.0,76,0.00,,,0.00,0,Wunderground v.1.15,2015-03-04 08:32:00,
2015-03-04 02:37:00,15.7,9.5,29.99,West,270,3.0,12.0,76,0.00,,,0.00,0,Wunderground v.1.15,2015-03-04 08:37:00,
2015-03-04 02:42:00,15.6,9.4,29.99,WNW,297,8.0,12.0,76,0.00,,,0.00,0,Wunderground v.1.15,2015-03-04 08:42:00,
2015-03-04 02:47:00,15.5,9.3,29.99,NW,316,5.0,13.0,76,0.00,,,0.00,0,Wunderground v.1.15,2015-03-04 08:47:00,
2015-03-04 02:52:00,15.4,9.2,29.99,West,280,8.0,16.0,76,0.00,,,0.00,0,Wunderground v.1.15,2015-03-04 08:52:00,
2015-03-04 02:57:00,15.3,9.1,29.99,WNW,288,3.0,16.0,76,0.00,,,0.00,0,Wunderground v.1.15,2015-03-04 08:57:00,
2015-03-04 03:02:00,15.2,9.0,29.99,West,277,8.0,14.0,76,0.00,,,0.00,0,Wunderground v.1.15,2015-03-04 09:02:00,
2015-03-04 03:07:00,15.2,9.0,30.00,West,279,3.0,14.0,76,0.00,,,0.00,0,Wunderground v.1.15,2015-03-04 09:07:00,
2015-03-04 03:12:00,15.1,8.9,29.99,West,261,2.0,9.0,76,0.00,,,0.00,0,Wunderground v.1.15,2015-03-04 09:12:00,
2015-03-04 03:17:00,14.9,8.7,30.00,West,263,4.0,9.0,76,0.00,,,0.00,0,Wunderground v.1.15,2015-03-04 09:17:00,
2015-03-04 03:22:00,14.7,8.5,30.00,WNW,295,3.0,13.0,76,0.00,,,0.00,0,Wunderground v.1.15,2015-03-04 09:22:00,
2015-03-04 03:27:00,14.5,8.3,30.00,WNW,298,8.0,13.0,76,0.00,,,0.00,0,Wunderground v.1.15,2015-03-04 09:27:00,
2015-03-04 03:32:00,14.4,8.2,30.00,West,276,3.0,9.0,76,0.00,,,0.00,0,Wunderground v.1.15,2015-03-04 09:32:00,
2015-03-04 03:37:00,14.2,8.0,30.00,NW,317,10.0,12.0,76,0.00,,,0.00,0,Wunderground v.1.15,2015-03-04 09:37:00,
2015-03-04 03:42:00,14.0,7.8,30.00,NW,318,3.0,8.0,76,0.00,,,0.00,0,Wunderground v.1.15,2015-03-04 09:42:00,
2015-03-04 03:47:00,13.9,7.7,30.01,WNW,286,8.0,9.0,76,0.00,,,0.00,0,Wunderground v.1.15,2015-03-04 09:47:00,
2015-03-04 03:52:00,13.8,7.6,30.01,WNW,300,8.0,12.0,76,0.00,,,0.00,0,Wunderground v.1.15,2015-03-04 09:52:00,
2015-03-04 03:57:00,13.7,7.5,30.02,WNW,292,3.0,12.0,76,0.00,,,0.00,0,Wunderground v.1.15,2015-03-04 09:57:00,
2015-03-04 04:02:00,13.6,7.4,30.02,WSW,257,5.0,9.0,76,0.00,,,0.00,0,Wunderground v.1.15,2015-03-04 10:02:00,
2015-03-04 04:07:00,13.5,7.3,30.02,WNW,284,6.0,10.0,76,0.00,,,0.00,0,Wunderground v.1.15,2015-03-04 10:07:00,
2015-03-04 04:12:00,13.4,7.2,30.03,West,273,7.0,8.0,76,0.00,,,0.00,0,Wunderground v.1.15,2015-03-04 10:12:00,
2015-03-04 04:17:00,13.2,7.0,30.03,WNW,290,2.0,8.0,76,0.00,,,0.00,0,Wunderground v.1.15,2015-03-04 10:17:00,
2015-03-04 04:22:00,13.1,7.0,30.03,WNW,286,5.0,5.0,76,0.00,,,0.00,0,Wunderground v.1.15,2015-03-04 10:22:00,
2015-03-04 04:27:00,13.0,6.9,30.03,West,266,2.0,9.0,76,0.00,,,0.00,0,Wunderground v.1.15,2015-03-04 10:27:00,
2015-03-04 04:32:00,12.8,6.7,30.04,West,270,4.0,12.0,76,0.00,,,0.00,0,Wunderground v.1.15,2015-03-04 10:32:00,
2015-03-04 04:37:00,12.7,6.6,30.04,West,280,8.0,12.0,76,0.00,,,0.00,0,Wunderground v.1.15,2015-03-04 10:37:00,
2015-03-04 04:42:00,12.5,6.4,30.05,WNW,292,4.0,10.0,76,0.00,,,0.00,0,Wunderground v.1.15,2015-03-04 10:42:00,
2015-03-04 04:47:00,12.4,6.3,30.05,WNW,303,2.0,10.0,76,0.00,,,0.00,0,Wunderground v.1.15,2015-03-04 10:47:00,
2015-03-04 04:52:00,12.3,6.2,30.06,WNW,285,2.0,8.0,76,0.00,,,0.00,0,Wunderground v.1.15,2015-03-04 10:52:00,
2015-03-04 04:57:00,12.1,6.0,30.06,WNW,292,2.0,11.0,76,0.00,,,0.00,0,Wunderground v.1.15,2015-03-04 10:57:00,
2015-03-04 05:02:00,12.0,5.9,30.07,WNW,293,1.0,7.0,76,0.00,,,0.00,0,Wunderground v.1.15,2015-03-04 11:02:00,
2015-03-04 05:07:00,11.8,6.0,30.07,SW,236,4.0,9.0,77,0.00,,,0.00,0,Wunderground v.1.15,2015-03-04 11:07:00,
2015-03-04 05:12:00,11.6,5.8,30.07,WSW,257,4.0,8.0,77,0.00,,,0.00,0,Wunderground v.1.15,2015-03-04 11:12:00,
2015-03-04 05:17:00,11.5,5.7,30.07,West,279,4.0,10.0,77,0.00,,,0.00,0,Wunderground v.1.15,2015-03-04 11:17:00,
2015-03-04 05:22:00,11.4,5.6,30.07,WNW,293,8.0,10.0,77,0.00,,,0.00,0,Wunderground v.1.15,2015-03-04 11:22:00,
2015-03-04 05:27:00,11.3,5.5,30.07,WNW,289,5.0,10.0,77,0.00,,,0.00,0,Wunderground v.1.15,2015-03-04 11:27:00,
2015-03-04 05:32:00,11.3,5.5,30.07,West,267,6.0,6.0,77,0.00,,,0.00,0,Wunderground v.1.15,2015-03-04 11:32:00,
2015-03-04 05:37:00,11.2,5.4,30.08,WNW,292,3.0,10.0,77,0.00,,,0.00,0,Wunderground v.1.15,2015-03-04 11:37:00,
2015-03-04 05:42:00,11.2,5.4,30.08,West,263,2.0,6.0,77,0.00,,,0.00,0,Wunderground v.1.15,2015-03-04 11:42:00,
2015-03-04 05:47:00,11.0,5.2,30.09,WNW,296,2.0,8.0,77,0.00,,,0.00,0,Wunderground v.1.15,2015-03-04 11:47:00,
2015-03-04 05:52:00,11.0,5.2,30.10,WNW,286,4.0,5.0,77,0.00,,,0.00,0,Wunderground v.1.15,2015-03-04 11:52:00,
2015-03-04 05:57:00,11.0,5.2,30.10,West,273,2.0,10.0,77,0.00,,,0.00,0,Wunderground v.1.15,2015-03-04 11:57:00,
2015-03-04 06:02:00,10.9,5.1,30.10,West,280,6.0,9.0,77,0.00,,,0.00,0,Wunderground v.1.15,2015-03-04 12:02:00,
2015-03-04 06:07:00,10.8,5.0,30.10,West,279,3.0,9.0,77,0.00,,,0.00,0,Wunderground v.1.15,2015-03-04 12:07:00,
2015-03-04 06:12:00,10.8,5.0,30.10,WNW,298,3.0,8.0,77,0.00,,,0.00,0,Wunderground v.1.15,2015-03-04 12:12:00,
2015-03-04 06:17:00,10.7,4.9,30.10,WNW,298,3.0,8.0,77,0.00,,,0.00,0,Wunderground v.1.15,2015-03-04 12:17:00,
2015-03-04 06:22:00,10.6,4.8,30.10,WNW,300,3.0,6.0,77,0.00,,,0.00,0,Wunderground v.1.15,2015-03-04 12:22:00,
2015-03-04 06:27:00,10.4,4.6,30.10,WNW,296,5.0,6.0,77,0.00,,,0.00,0,Wunderground v.1.15,2015-03-04 12:27:00,
2015-03-04 06:32:00,10.3,4.5,30.10,West,263,2.0,7.0,77,0.00,,,0.00,5,Wunderground v.1.15,2015-03-04 12:32:00,
2015-03-04 06:37:00,10.2,4.4,30.10,WNW,297,3.0,7.0,77,0.00,,,0.00,11,Wunderground v.1.15,2015-03-04 12:37:00,
2015-03-04 06:42:00,10.1,4.0,30.11,NW,306,4.0,6.0,76,0.00,,,0.00,16,Wunderground v.1.15,2015-03-04 12:42:00,
2015-03-04 06:47:00,10.1,4.0,30.11,WNW,290,4.0,8.0,76,0.00,,,0.00,21,Wunderground v.1.15,2015-03-04 12:47:00,
2015-03-04 06:52:00,10.1,4.0,30.11,WNW,293,4.0,5.0,76,0.00,,,0.00,28,Wunderground v.1.15,2015-03-04 12:52:00,
2015-03-04 06:57:00,10.1,4.0,30.11,NW,317,6.0,6.0,76,0.00,,,0.00,32,Wunderground v.1.15,2015-03-04 12:57:00,
2015-03-04 07:02:00,10.0,3.7,30.11,WNW,300,2.0,9.0,75,0.00,,,0.00,42,Wunderground v.1.15,2015-03-04 13:02:00,
2015-03-04 07:07:00,10.0,3.1,30.11,WNW,284,15.0,17.0,73,0.00,,,0.00,47,Wunderground v.1.15,2015-03-04 13:07:00,
2015-03-04 07:12:00,10.0,2.8,30.11,NW,317,7.0,11.0,72,0.00,,,0.00,53,Wunderground v.1.15,2015-03-04 13:12:00,